Time;durP1;ratioP1;P1;durP2;ratioP2;P2;SDS_P1;SDS_P2;PMS_P1;PMS_P2;Temp;Humidity;BMP_temperature;BMP_pressure;BME280_temperature;BME280_humidity;BME280_pressure;Samples;Min_cycle;Max_cycle;Signal;HPM_P1;HPM_P2
2022/09/09 00:01:51;;;;;;;;;3.00;2.20;;;;;-144.96;100.00;116156.88;5027577;28;45459;-88
2022/09/09 00:04:46;;;;;;;;;2.40;1.40;;;;;-144.96;100.00;116156.88;5046423;28;44687;-88
2022/09/09 00:07:47;;;;;;;;;1.40;1.00;;;;;-144.96;100.00;116156.88;5033560;28;44827;-88
2022/09/09 00:10:39;;;;;;;;;1.00;1.00;;;;;-144.96;100.00;116156.88;5046810;28;44750;-89
2022/09/09 00:13:39;;;;;;;;;1.60;1.00;;;;;-144.96;100.00;116156.88;5045372;28;47135;-89
2022/09/09 00:16:07;;;;;;;;;2.40;1.00;;;;;-144.96;100.00;116156.88;5046423;28;45335;-89
2022/09/09 00:18:54;;;;;;;;;1.00;1.00;;;;;-144.96;100.00;116156.88;5045363;28;45364;-88
2022/09/09 00:21:33;;;;;;;;;3.00;2.00;;;;;-144.96;100.00;116156.88;5050097;28;44811;-88
2022/09/09 00:24:00;;;;;;;;;2.40;0.80;;;;;-144.96;100.00;116156.88;5047494;28;45229;-85
2022/09/09 00:26:44;;;;;;;;;1.00;1.00;;;;;-144.96;100.00;116156.88;5039657;28;45432;-84
2022/09/09 00:29:19;;;;;;;;;1.00;1.00;;;;;-144.96;100.00;116156.88;5042648;28;45388;-85
2022/09/09 00:31:44;;;;;;;;;3.00;1.00;;;;;-144.96;100.00;116156.88;5039830;28;44815;-85
2022/09/09 00:34:15;;;;;;;;;2.50;1.50;;;;;-144.96;100.00;116156.88;5042928;28;44968;-84
2022/09/09 00:36:43;;;;;;;;;4.20;1.40;;;;;-144.96;100.00;116156.88;5045130;28;45476;-86
2022/09/09 00:39:19;;;;;;;;;0.80;0.00;;;;;-144.96;100.00;116156.88;5052165;28;44718;-86
2022/09/09 00:42:12;;;;;;;;;2.40;2.20;;;;;-144.96;100.00;116156.88;5050641;28;44909;-86
2022/09/09 00:44:39;;;;;;;;;3.00;1.20;;;;;-144.96;100.00;116156.88;5047199;28;46023;-85
2022/09/09 00:47:27;;;;;;;;;3.80;2.00;;;;;-144.96;100.00;116156.88;5044981;28;45277;-86
2022/09/09 00:50:01;;;;;;;;;3.20;1.00;;;;;-144.96;100.00;116156.88;5036602;28;44837;-86
2022/09/09 00:52:46;;;;;;;;;1.00;0.20;;;;;-144.96;100.00;116156.88;5045623;28;44858;-86
2022/09/09 00:55:33;;;;;;;;;3.80;1.00;;;;;-144.96;100.00;116156.88;5036108;28;46611;-88
2022/09/09 00:57:59;;;;;;;;;2.40;1.00;;;;;-144.96;100.00;116156.88;5051838;28;44758;-88
2022/09/09 01:00:39;;;;;;;;;3.00;2.00;;;;;-144.96;100.00;116156.88;5049653;28;44790;-88
2022/09/09 01:03:17;;;;;;;;;2.20;1.00;;;;;-144.96;100.00;116156.88;5046123;28;44814;-90
2022/09/09 01:06:00;;;;;;;;;2.00;1.60;;;;;-144.96;100.00;116156.88;5047469;28;46936;-86
2022/09/09 01:08:50;;;;;;;;;2.00;2.00;;;;;-144.96;100.00;116156.88;5044155;28;45371;-89
2022/09/09 01:11:25;;;;;;;;;2.60;2.00;;;;;-144.96;100.00;116156.88;5045170;28;45270;-88
2022/09/09 01:14:00;;;;;;;;;1.00;1.00;;;;;-144.96;100.00;116156.88;5044973;28;45227;-88
2022/09/09 01:16:29;;;;;;;;;2.20;1.20;;;;;-144.96;100.00;116156.88;5044892;28;45377;-89
2022/09/09 01:18:58;;;;;;;;;2.40;1.00;;;;;-144.96;100.00;116156.88;5045340;28;45499;-89
2022/09/09 01:21:41;;;;;;;;;2.60;1.60;;;;;-144.96;100.00;116156.88;5045079;28;45432;-85
2022/09/09 01:24:26;;;;;;;;;2.40;1.60;;;;;-144.96;100.00;116156.88;5046907;28;44753;-84
2022/09/09 01:26:59;;;;;;;;;3.00;1.60;;;;;-144.96;100.00;116156.88;5040988;28;45735;-85
2022/09/09 01:29:25;;;;;;;;;3.40;1.40;;;;;-144.96;100.00;116156.88;5041309;28;45307;-86
2022/09/09 01:31:57;;;;;;;;;1.00;1.00;;;;;-144.96;100.00;116156.88;5040246;28;45419;-85
2022/09/09 01:34:28;;;;;;;;;1.00;1.00;;;;;-144.96;100.00;116156.88;5022143;28;44890;-85
2022/09/09 01:36:56;;;;;;;;;2.00;1.40;;;;;-144.96;100.00;116156.88;5039379;28;45286;-87
2022/09/09 01:39:22;;;;;;;;;1.40;1.00;;;;;-144.96;100.00;116156.88;5040946;28;44802;-86
2022/09/09 01:41:47;;;;;;;;;3.00;0.75;;;;;-144.96;100.00;116156.88;5045714;28;45480;-84
2022/09/09 01:44:13;;;;;;;;;1.75;1.00;;;;;-144.96;100.00;116156.88;5042857;28;44877;-85
2022/09/09 01:46:38;;;;;;;;;3.00;1.00;;;;;-144.96;100.00;116156.88;5040247;28;45521;-86
2022/09/09 01:49:07;;;;;;;;;1.00;1.00;;;;;-144.96;100.00;116156.88;5041137;28;44921;-87
2022/09/09 01:51:34;;;;;;;;;1.40;1.40;;;;;-144.96;100.00;116156.88;5039078;28;45405;-87
2022/09/09 01:54:00;;;;;;;;;5.00;1.00;;;;;-144.96;100.00;116156.88;5039730;28;44790;-86
2022/09/09 01:56:50;;;;;;;;;0.00;0.00;;;;;-144.96;100.00;116156.88;5039060;28;45225;-87
2022/09/09 01:59:37;;;;;;;;;3.80;0.20;;;;;-144.96;100.00;116156.88;5038094;28;45258;-87
2022/09/09 02:02:13;;;;;;;;;1.00;0.40;;;;;-144.96;100.00;116156.88;5039336;28;45271;-86
2022/09/09 02:04:41;;;;;;;;;3.80;1.20;;;;;-144.96;100.00;116156.88;5025771;28;45362;-86
2022/09/09 02:07:28;;;;;;;;;3.00;1.00;;;;;-144.96;100.00;116156.88;5047505;28;45080;-87
2022/09/09 02:10:20;;;;;;;;;1.80;0.00;;;;;-144.96;100.00;116156.88;5040858;28;45377;-86
2022/09/09 02:12:52;;;;;;;;;3.40;2.00;;;;;-144.96;100.00;116156.88;5036915;28;45525;-86
2022/09/09 02:15:41;;;;;;;;;2.60;1.00;;;;;-144.96;100.00;116156.88;5040325;28;45552;-89
2022/09/09 02:18:09;;;;;;;;;2.80;1.20;;;;;-144.96;100.00;116156.88;5022339;28;45311;-86
2022/09/09 02:20:38;;;;;;;;;4.00;1.60;;;;;-144.96;100.00;116156.88;5038294;28;45459;-89
2022/09/09 02:23:07;;;;;;;;;3.20;1.20;;;;;-144.96;100.00;116156.88;5039418;28;45384;-89
2022/09/09 02:25:34;;;;;;;;;2.60;1.80;;;;;-144.96;100.00;116156.88;5040722;28;45357;-88
2022/09/09 02:28:03;;;;;;;;;1.60;1.00;;;;;-144.96;100.00;116156.88;5020080;28;45305;-86
2022/09/09 02:30:32;;;;;;;;;3.80;1.00;;;;;-144.96;100.00;116156.88;5036872;28;44755;-86
2022/09/09 02:33:03;;;;;;;;;4.20;2.00;;;;;-144.96;100.00;116156.88;5037871;28;44870;-86
2022/09/09 02:35:32;;;;;;;;;1.60;1.00;;;;;-144.96;100.00;116156.88;5020238;28;44981;-85
2022/09/09 02:38:03;;;;;;;;;3.20;1.40;;;;;-144.96;100.00;116156.88;5038036;28;45412;-87
2022/09/09 02:40:28;;;;;;;;;2.80;1.40;;;;;-144.96;100.00;116156.88;5039774;28;44892;-87
2022/09/09 02:42:55;;;;;;;;;1.75;1.75;;;;;-144.96;100.00;116156.88;5041299;28;45433;-87
2022/09/09 02:45:25;;;;;;;;;1.40;1.40;;;;;-144.96;100.00;116156.88;5025858;28;44817;-88
2022/09/09 02:47:55;;;;;;;;;3.80;2.00;;;;;-144.96;100.00;116156.88;5040157;28;46652;-87
2022/09/09 02:50:38;;;;;;;;;4.60;2.80;;;;;-144.96;100.00;116156.88;5046880;28;44776;-86
2022/09/09 02:53:20;;;;;;;;;3.00;2.80;;;;;-144.96;100.00;116156.88;5049271;28;45377;-88
2022/09/09 02:55:55;;;;;;;;;5.80;2.60;;;;;-144.96;100.00;116156.88;5043416;28;45332;-87
2022/09/09 02:58:21;;;;;;;;;2.60;1.00;;;;;-144.96;100.00;116156.88;5040296;28;46582;-86
2022/09/09 03:00:49;;;;;;;;;2.00;1.00;;;;;-144.96;100.00;116156.88;5020182;28;45492;-86
2022/09/09 03:03:16;;;;;;;;;4.60;3.00;;;;;-144.96;100.00;116156.88;5037809;28;44900;-88
2022/09/09 03:05:42;;;;;;;;;1.60;1.60;;;;;-144.96;100.00;116156.88;5038280;28;45557;-86
2022/09/09 03:08:07;;;;;;;;;3.00;1.60;;;;;-144.96;100.00;116156.88;5038272;28;45198;-86
2022/09/09 03:10:34;;;;;;;;;6.50;2.00;;;;;-144.96;100.00;116156.88;5038141;28;45313;-86
2022/09/09 03:12:59;;;;;;;;;1.60;1.00;;;;;-144.96;100.00;116156.88;5036619;28;45362;-85
2022/09/09 03:15:28;;;;;;;;;4.00;1.00;;;;;-144.96;100.00;116156.88;5038184;28;44893;-86
2022/09/09 03:17:55;;;;;;;;;1.00;1.00;;;;;-144.96;100.00;116156.88;5039326;28;45333;-88
2022/09/09 03:26:38;;;;;;;;;4.00;2.80;;;;;-144.96;100.00;116156.88;5042233;28;44747;-89
2022/09/09 03:29:25;;;;;;;;;3.80;2.20;;;;;-144.96;100.00;116156.88;5044033;28;46995;-91
2022/09/09 03:31:50;;;;;;;;;2.40;2.00;;;;;-144.96;100.00;116156.88;5046739;28;45226;-90
2022/09/09 03:34:34;;;;;;;;;5.75;2.00;;;;;-144.96;100.00;116156.88;5031500;28;45231;-89
2022/09/09 03:37:02;;;;;;;;;3.20;3.00;;;;;-144.96;100.00;116156.88;5051958;28;45487;-90
2022/09/09 03:39:28;;;;;;;;;7.60;2.00;;;;;-144.96;100.00;116156.88;5045873;28;45518;-90
2022/09/09 03:41:54;;;;;;;;;3.00;1.80;;;;;-144.96;100.00;116156.88;5044312;28;45247;-88
2022/09/09 03:44:49;;;;;;;;;4.25;1.25;;;;;-144.96;100.00;116156.88;5020649;28;45279;-89
2022/09/09 03:47:21;;;;;;;;;2.00;1.40;;;;;-144.96;100.00;116156.88;4925669;28;45102;-90
2022/09/09 03:50:11;;;;;;;;;6.20;2.00;;;;;-144.96;100.00;116156.88;4924513;28;46853;-89
2022/09/09 03:52:38;;;;;;;;;2.80;1.80;;;;;-144.96;100.00;116156.88;4923764;28;44835;-89
2022/09/09 03:55:04;;;;;;;;;4.00;3.00;;;;;-144.96;100.00;116156.88;4932956;28;44872;-90
2022/09/09 03:57:30;;;;;;;;;1.20;1.20;;;;;-144.96;100.00;116156.88;4926907;28;44943;-90
2022/09/09 03:59:56;;;;;;;;;4.00;1.00;;;;;-144.96;100.00;116156.88;4928562;28;45237;-90
2022/09/09 04:02:47;;;;;;;;;4.00;2.25;;;;;-144.96;100.00;116156.88;4931879;28;45316;-90
2022/09/09 04:05:14;;;;;;;;;4.00;2.20;;;;;-144.96;100.00;116156.88;4884512;28;44868;-88
2022/09/09 04:21:31;;;;;;;;;2.00;2.00;;;;;-144.96;100.00;116156.88;4947023;28;45265;-89
2022/09/09 04:24:35;;;;;;;;;5.80;3.80;;;;;-144.96;100.00;116156.88;4947100;28;45380;-90
2022/09/09 04:27:28;;;;;;;;;4.20;4.00;;;;;-144.96;100.00;116156.88;4937899;28;44768;-90
2022/09/09 04:30:39;;;;;;;;;;;;;;;;;;;;;
2022/09/09 04:37:01;;;;;;;;;3.20;2.60;;;;;-144.96;100.00;116156.88;4904547;29;45587;-89
2022/09/09 04:47:08;;;;;;;;;3.20;3.20;;;;;-144.96;100.00;116156.88;4863752;29;44979;-90
2022/09/09 04:56:22;;;;;;;;;3.80;2.00;;;;;-144.96;100.00;116156.88;4847384;29;44719;-90
2022/09/09 04:58:50;;;;;;;;;3.00;3.00;;;;;-144.96;100.00;116156.88;4837959;29;44865;-90
2022/09/09 05:01:42;;;;;;;;;6.80;2.20;;;;;-144.96;100.00;116156.88;4835303;29;46306;-91
2022/09/09 05:05:10;;;;;;;;;4.40;3.40;;;;;-144.96;100.00;116156.88;4836306;29;45304;-90
2022/09/09 05:07:41;;;;;;;;;2.80;2.80;;;;;-144.96;100.00;116156.88;4780135;29;44783;-90
2022/09/09 05:10:59;;;;;;;;;3.20;2.60;;;;;-144.96;100.00;116156.88;4798136;29;45217;-90
2022/09/09 05:13:24;;;;;;;;;5.60;3.20;;;;;-144.96;100.00;116156.88;4836672;29;45576;-90
2022/09/09 05:19:08;;;;;;;;;6.40;4.40;;;;;-144.96;100.00;116156.88;4819596;29;45420;-91
2022/09/09 05:24:58;;;;;;;;;5.20;4.00;;;;;-144.96;100.00;116156.88;4851868;29;45043;-90
2022/09/09 05:40:57;;;;;;;;;2.60;2.00;;;;;-144.96;100.00;116156.88;4812449;29;44784;-89
2022/09/09 05:43:24;;;;;;;;;3.00;3.00;;;;;-144.96;100.00;116156.88;4825737;29;45528;-88
2022/09/09 05:46:09;;;;;;;;;4.40;3.00;;;;;-144.96;100.00;116156.88;4884680;29;44991;-88
2022/09/09 05:48:37;;;;;;;;;2.00;0.00;;;;;-144.96;100.00;116156.88;4924833;28;46640;-88
2022/09/09 05:51:10;;;;;;;;;2.20;2.20;;;;;-144.96;100.00;116156.88;4929569;28;44678;-88
2022/09/09 05:53:39;;;;;;;;;7.20;2.20;;;;;-144.96;100.00;116156.88;4970737;28;44750;-87
2022/09/09 05:56:11;;;;;;;;;2.40;2.00;;;;;-144.96;100.00;116156.88;4966943;28;45333;-87
2022/09/09 05:58:38;;;;;;;;;3.60;3.60;;;;;-144.96;100.00;116156.88;4986118;28;45136;-88
2022/09/09 06:01:07;;;;;;;;;7.00;3.20;;;;;-144.96;100.00;116156.88;4970616;28;44775;-88
2022/09/09 06:03:34;;;;;;;;;2.00;2.00;;;;;-144.96;100.00;116156.88;4964737;28;44785;-88
2022/09/09 06:06:04;;;;;;;;;4.60;3.00;;;;;-144.96;100.00;116156.88;4982066;28;45524;-89
2022/09/09 06:08:30;;;;;;;;;6.80;5.00;;;;;-144.96;100.00;116156.88;5030607;28;45195;-87
2022/09/09 06:11:02;;;;;;;;;2.00;2.00;;;;;-144.96;100.00;116156.88;5045668;28;44778;-87
2022/09/09 06:13:28;;;;;;;;;4.80;2.60;;;;;-144.96;100.00;116156.88;5048552;28;45225;-90
2022/09/09 06:16:01;;;;;;;;;3.50;3.00;;;;;-144.96;100.00;116156.88;5049605;28;44957;-90
2022/09/09 06:18:27;;;;;;;;;3.00;3.00;;;;;-144.96;100.00;116156.88;5031705;28;46510;-90
2022/09/09 06:21:00;;;;;;;;;3.80;2.80;;;;;-144.96;100.00;116156.88;5044383;28;44865;-89
2022/09/09 06:23:27;;;;;;;;;3.40;2.80;;;;;-144.96;100.00;116156.88;5044397;28;44837;-90
2022/09/09 06:26:09;;;;;;;;;4.00;3.00;;;;;-144.96;100.00;116156.88;5025597;28;44858;-90
2022/09/09 06:28:36;;;;;;;;;2.00;2.00;;;;;-144.96;100.00;116156.88;5045461;28;45288;-89
2022/09/09 06:31:03;;;;;;;;;7.00;3.00;;;;;-144.96;100.00;116156.88;5043952;28;44679;-90
2022/09/09 06:33:44;;;;;;;;;2.20;2.00;;;;;-144.96;100.00;116156.88;5048331;28;44734;-90
2022/09/09 06:36:30;;;;;;;;;4.60;3.00;;;;;-144.96;100.00;116156.88;5033064;28;45079;-90
2022/09/09 06:39:33;;;;;;;;;4.00;2.00;;;;;-144.96;100.00;116156.88;5050758;28;46920;-91
2022/09/09 06:42:23;;;;;;;;;4.20;2.80;;;;;-144.96;100.00;116156.88;5048105;28;44893;-90
2022/09/09 06:45:09;;;;;;;;;5.00;2.00;;;;;-144.96;100.00;116156.88;5029941;28;44668;-91
2022/09/09 06:47:34;;;;;;;;;6.60;2.20;;;;;-144.96;100.00;116156.88;5045792;28;44929;-90
2022/09/09 06:52:35;;;;;;;;;1.80;1.20;;;;;-144.96;100.00;116156.88;5258729;22;46033;-91
2022/09/09 06:55:01;;;;;;;;;4.75;3.00;;;;;-144.96;100.00;116156.88;5101641;27;44675;-90
2022/09/09 06:57:26;;;;;;;;;3.25;2.50;;;;;-144.96;100.00;116156.88;5121725;27;44871;-90
2022/09/09 06:59:52;;;;;;;;;3.75;3.25;;;;;-144.96;100.00;116156.88;5121641;27;45252;-89
2022/09/09 07:02:18;;;;;;;;;1.80;1.80;;;;;-144.96;100.00;116156.88;5121482;27;44588;-92
2022/09/09 07:04:44;;;;;;;;;6.00;2.75;;;;;-144.96;100.00;116156.88;5114890;27;45148;-91
2022/09/09 07:07:12;;;;;;;;;2.00;2.00;;;;;-144.96;100.00;116156.88;5094429;27;44965;-91
2022/09/09 07:09:40;;;;;;;;;3.40;2.00;;;;;-144.96;100.00;116156.88;5090140;27;45343;-90
2022/09/09 07:12:06;;;;;;;;;2.40;1.20;;;;;-144.96;100.00;116156.88;5088714;27;44603;-90
2022/09/09 07:14:58;;;;;;;;;2.40;1.40;;;;;-144.96;100.00;116156.88;5115918;27;44722;-92
2022/09/09 07:17:28;;;;;;;;;6.40;3.00;;;;;-144.96;100.00;116156.88;5121247;27;44819;-92
2022/09/09 07:20:39;;;;;;;;;4.80;2.80;;;;;-144.96;100.00;116156.88;5106397;27;45277;-92
2022/09/09 07:26:14;;;;;;;;;1.60;1.60;;;;;-144.96;100.00;116156.88;5465729;22;45953;-90
2022/09/09 07:28:41;;;;;;;;;0.40;0.20;;;;;-144.96;100.00;116156.88;5110073;27;44935;-89
2022/09/09 07:31:13;;;;;;;;;3.40;1.80;;;;;-144.96;100.00;116156.88;5107075;27;45188;-90
2022/09/09 07:33:41;;;;;;;;;2.00;2.00;;;;;-144.96;100.00;116156.88;5117088;27;44713;-93
2022/09/09 07:36:14;;;;;;;;;3.60;3.00;;;;;-144.96;100.00;116156.88;5093330;27;44673;-88
2022/09/09 07:38:45;;;;;;;;;5.60;3.00;;;;;-144.96;100.00;116156.88;5107236;27;45380;-90
2022/09/09 07:41:28;;;;;;;;;1.80;1.00;;;;;-144.96;100.00;116156.88;5112969;27;46460;-88
2022/09/09 07:43:53;;;;;;;;;5.80;1.80;;;;;-144.96;100.00;116156.88;5125026;27;44783;-88
2022/09/09 07:46:21;;;;;;;;;8.00;4.25;;;;;-144.96;100.00;116156.88;5126920;27;45235;-87
2022/09/09 07:48:52;;;;;;;;;3.60;3.40;;;;;-144.96;100.00;116156.88;5111617;27;45398;-93
2022/09/09 07:51:27;;;;;;;;;4.00;2.00;;;;;-144.96;100.00;116156.88;5144278;22;46682;-91
2022/09/09 07:57:09;;;;;;;;;4.60;2.20;;;;;-144.96;100.00;116156.88;5047147;28;44762;-91
2022/09/09 07:59:34;;;;;;;;;3.80;1.80;;;;;-144.96;100.00;116156.88;5066512;28;44805;-91
2022/09/09 08:02:00;;;;;;;;;4.25;1.25;;;;;-144.96;100.00;116156.88;5059708;28;45320;-91
2022/09/09 08:04:26;;;;;;;;;2.00;1.25;;;;;-144.96;100.00;116156.88;5026882;28;44672;-91
2022/09/09 08:06:57;;;;;;;;;1.20;1.20;;;;;-144.96;100.00;116156.88;5029009;28;45270;-91
2022/09/09 08:09:28;;;;;;;;;2.00;2.00;;;;;-144.96;100.00;116156.88;5030400;28;44730;-92
2022/09/09 08:11:55;;;;;;;;;5.60;4.40;;;;;-144.96;100.00;116156.88;5029751;28;45574;-92
2022/09/09 08:14:20;;;;;;;;;4.60;2.00;;;;;-144.96;100.00;116156.88;5025285;28;44774;-94
2022/09/09 08:16:48;;;;;;;;;2.50;2.25;;;;;-144.96;100.00;116156.88;5025080;28;44760;-92
2022/09/09 08:19:17;;;;;;;;;3.80;2.00;;;;;-144.96;100.00;116156.88;5025125;28;45082;-92
2022/09/09 08:21:44;;;;;;;;;2.40;1.40;;;;;-144.96;100.00;116156.88;5022618;28;45015;-92
2022/09/09 08:24:11;;;;;;;;;3.00;2.00;;;;;-144.96;100.00;116156.88;5021038;28;44711;-80
2022/09/09 08:26:39;;;;;;;;;3.80;2.00;;;;;-144.96;100.00;116156.88;5044230;28;45586;-77
2022/09/09 08:29:06;;;;;;;;;3.20;3.20;;;;;-144.96;100.00;116156.88;5091132;27;44892;-86
2022/09/09 08:35:32;;;;;;;;;1.00;1.00;;;;;-144.96;100.00;116156.88;5115173;27;44757;-84
2022/09/09 08:37:57;;;;;;;;;2.75;1.00;;;;;-144.96;100.00;116156.88;5093326;27;45184;-83
2022/09/09 08:40:29;;;;;;;;;2.00;2.00;;;;;-144.96;100.00;116156.88;5097784;27;44941;-85
2022/09/09 08:43:01;;;;;;;;;1.00;1.00;;;;;-144.96;100.00;116156.88;5095473;27;44965;-83
2022/09/09 08:45:37;;;;;;;;;2.20;2.00;;;;;-144.96;100.00;116156.88;5098217;27;45591;-84
2022/09/09 08:48:22;;;;;;;;;2.00;2.00;;;;;-144.96;100.00;116156.88;5115334;27;45433;-84
2022/09/09 08:50:50;;;;;;;;;2.80;1.60;;;;;-144.96;100.00;116156.88;5106040;27;45414;-81
2022/09/09 08:53:24;;;;;;;;;2.80;1.00;;;;;-144.96;100.00;116156.88;5115162;27;44910;-83
2022/09/09 08:56:01;;;;;;;;;4.00;2.40;;;;;-144.96;100.00;116156.88;5117724;27;45105;-83
2022/09/09 08:58:29;;;;;;;;;1.40;0.60;;;;;-144.96;100.00;116156.88;5110456;27;45330;-83
2022/09/09 09:01:13;;;;;;;;;0.40;0.40;;;;;-144.96;100.00;116156.88;5096461;27;45403;-83
2022/09/09 09:03:41;;;;;;;;;3.80;1.00;;;;;-144.96;100.00;116156.88;5095792;27;45448;-82
2022/09/09 09:06:19;;;;;;;;;4.00;1.00;;;;;-144.96;100.00;116156.88;5101752;27;45391;-83
2022/09/09 09:08:53;;;;;;;;;2.20;2.00;;;;;-144.96;100.00;116156.88;5120711;27;44818;-83
2022/09/09 09:11:19;;;;;;;;;2.60;1.00;;;;;-144.96;100.00;116156.88;5120969;27;45366;-82
2022/09/09 09:13:51;;;;;;;;;1.25;0.00;;;;;-144.96;100.00;116156.88;5120735;27;45352;-83
2022/09/09 09:16:26;;;;;;;;;3.60;1.20;;;;;-144.96;100.00;116156.88;5114457;27;45913;-82
2022/09/09 09:18:52;;;;;;;;;2.60;1.00;;;;;-144.96;100.00;116156.88;5116061;27;44809;-82
2022/09/09 09:21:52;;;;;;;;;3.00;1.40;;;;;-144.96;100.00;116156.88;5117134;27;45331;-83
2022/09/09 09:24:23;;;;;;;;;1.00;1.00;;;;;-144.96;100.00;116156.88;5116301;27;45223;-83
2022/09/09 09:26:49;;;;;;;;;2.00;2.00;;;;;-144.96;100.00;116156.88;5118401;27;45371;-83
2022/09/09 09:29:18;;;;;;;;;3.60;2.60;;;;;-144.96;100.00;116156.88;5119510;27;45304;-84
2022/09/09 09:31:58;;;;;;;;;4.00;2.20;;;;;-144.96;100.00;116156.88;5119558;27;45369;-83
2022/09/09 09:34:24;;;;;;;;;4.20;2.00;;;;;-144.96;100.00;116156.88;5113025;27;45505;-83
2022/09/09 09:36:56;;;;;;;;;7.20;0.00;;;;;-144.96;100.00;116156.88;5096972;27;45453;-83
2022/09/09 09:39:28;;;;;;;;;1.80;0.00;;;;;-144.96;100.00;116156.88;5099615;27;45462;-83
2022/09/09 09:41:54;;;;;;;;;1.00;1.00;;;;;-144.96;100.00;116156.88;5100171;27;45496;-83
2022/09/09 09:44:31;;;;;;;;;2.00;1.80;;;;;-144.96;100.00;116156.88;5100579;27;44784;-83
2022/09/09 09:47:21;;;;;;;;;2.40;2.00;;;;;-144.96;100.00;116156.88;5084457;27;45364;-83
2022/09/09 09:50:02;;;;;;;;;1.40;1.20;;;;;-144.96;100.00;116156.88;5081319;27;45163;-83
2022/09/09 09:52:29;;;;;;;;;2.60;1.20;;;;;-144.96;100.00;116156.88;5080410;27;44898;-83
2022/09/09 09:54:57;;;;;;;;;3.00;1.00;;;;;-144.96;100.00;116156.88;5080421;27;45297;-82
2022/09/09 09:57:40;;;;;;;;;2.20;1.00;;;;;-144.96;100.00;116156.88;5079963;27;45240;-83
2022/09/09 10:00:13;;;;;;;;;4.80;1.80;;;;;-144.96;100.00;116154.81;5079463;27;45403;-84
2022/09/09 10:02:43;;;;;;;;;2.00;0.60;;;;;-144.96;100.00;115630.84;5080377;27;45255;-83
2022/09/09 10:05:24;;;;;;;;;2.00;1.00;;;;;-144.96;100.00;113273.69;5079561;27;44916;-83
2022/09/09 10:08:03;;;;;;;;;1.00;1.00;;;;;-144.96;100.00;109086.59;5080159;27;45620;-83
2022/09/09 10:10:38;;;;;;;;;2.80;1.20;;;;;-144.96;100.00;103858.75;5078889;27;45533;-83
2022/09/09 10:13:09;;;;;;;;;2.00;2.00;;;;;-144.96;100.00;100725.28;5079479;27;45283;-83
2022/09/09 10:15:54;;;;;;;;;1.00;1.00;;;;;-144.96;100.00;100725.28;5082925;27;45449;-83
2022/09/09 10:18:54;;;;;;;;;1.60;1.00;;;;;-144.96;100.00;100986.31;5085095;27;45505;-83
2022/09/09 10:21:32;;;;;;;;;1.00;1.00;;;;;-144.96;100.00;98115.88;5080820;27;44841;-83
2022/09/09 10:24:28;;;;;;;;;1.40;1.40;;;;;-144.96;100.00;98898.53;5079330;27;45437;-83
2022/09/09 10:27:19;;;;;;;;;3.60;2.00;;;;;-144.96;100.00;98115.88;5079274;27;45371;-83
2022/09/09 10:29:59;;;;;;;;;0.60;0.00;;;;;-144.96;100.00;94726.19;5080310;27;45513;-83
2022/09/09 10:32:55;;;;;;;;;4.20;1.20;;;;;-144.96;100.00;91339.34;5081446;27;44847;-83
2022/09/09 10:35:33;;;;;;;;;1.00;1.00;;;;;-144.96;100.00;86394.47;5079492;27;45482;-84
2022/09/09 10:38:23;;;;;;;;;1.60;1.00;;;;;-144.96;100.00;84834.19;5080495;27;45524;-83
2022/09/09 10:41:07;;;;;;;;;1.00;1.00;;;;;-144.96;100.00;80416.66;5079570;27;45499;-83
2022/09/09 10:43:51;;;;;;;;;1.00;1.00;;;;;-144.96;100.00;78079.94;5079422;27;45390;-84
2022/09/09 10:46:35;;;;;;;;;1.00;1.00;;;;;-144.96;100.00;74707.06;5077827;28;45475;-83
2022/09/09 10:49:20;;;;;;;;;2.60;1.80;;;;;-144.96;100.00;75225.78;5077968;28;45394;-83
2022/09/09 10:52:10;;;;;;;;;1.40;1.00;;;;;-144.96;100.00;72632.88;5078942;27;45608;-83
2022/09/09 10:54:48;;;;;;;;;4.00;2.00;;;;;-144.96;100.00;68746.66;5061990;28;44910;-83
2022/09/09 10:57:32;;;;;;;;;2.40;1.00;;;;;-144.96;100.00;64346.84;5078834;27;45538;-83
2022/09/09 11:00:04;;;;;;;;;2.00;0.60;;;;;-144.96;100.00;56852.47;5079281;27;44791;-83
2022/09/09 11:02:32;;;;;;;;;2.00;2.00;;;;;-144.96;100.00;51692.19;5078487;27;44980;-83
2022/09/09 11:05:08;;;;;;;;;4.80;2.40;;;;;-144.96;100.00;48341.63;5079319;27;45396;-84
2022/09/09 11:08:03;;;;;;;;;4.20;2.00;;;;;-144.96;100.00;38820.88;5078594;27;45482;-83
2022/09/09 11:10:55;;;;;;;;;1.80;1.00;;;;;-144.96;100.00;37536.06;5077186;27;45335;-83
2022/09/09 11:13:44;;;;;;;;;3.20;1.00;;;;;-144.96;100.00;30092.41;5079253;27;45411;-83
2022/09/09 11:16:28;;;;;;;;;1.20;0.80;;;;;-144.96;100.00;21383.31;5080821;27;45354;-83
2022/09/09 11:19:26;;;;;;;;;3.60;3.60;;;;;-144.96;100.00;-3547.06;5078991;27;45078;-83
2022/09/09 11:21:54;;;;;;;;;1.40;1.40;;;;;-144.96;100.00;-15791.16;5077207;27;44974;-83
2022/09/09 11:24:34;;;;;;;;;1.00;1.00;;;;;-144.96;100.00;-15791.16;5079544;27;45477;-82
2022/09/09 11:27:15;;;;;;;;;1.40;0.80;;;;;-144.96;100.00;-15791.16;5081664;27;44758;-83
2022/09/09 11:30:16;;;;;;;;;1.20;1.20;;;;;-144.96;100.00;-15791.16;5082702;27;45427;-83
2022/09/09 11:32:57;;;;;;;;;1.40;1.40;;;;;-144.96;100.00;-15791.16;5057684;28;45265;-84
2022/09/09 11:35:49;;;;;;;;;2.00;2.00;;;;;-144.96;100.00;-15791.16;5055123;28;45470;-84
2022/09/09 11:38:39;;;;;;;;;2.40;0.00;;;;;-144.96;100.00;-15791.16;5056209;28;45580;-83
2022/09/09 11:41:08;;;;;;;;;1.60;1.60;;;;;-144.96;100.00;-15791.16;5055664;28;44828;-83
2022/09/09 11:43:51;;;;;;;;;0.80;0.80;;;;;-144.96;100.00;-15791.16;5055460;28;44890;-83
2022/09/09 11:46:21;;;;;;;;;2.20;1.60;;;;;-144.96;100.00;-15791.16;5055298;28;45495;-83
2022/09/09 11:49:00;;;;;;;;;1.60;0.60;;;;;-144.96;100.00;-15791.16;5055336;28;44707;-83
2022/09/09 11:51:29;;;;;;;;;1.20;1.20;;;;;-144.96;100.00;-15791.16;5057143;28;44722;-83
2022/09/09 11:54:02;;;;;;;;;1.80;0.40;;;;;-144.96;100.00;-15791.16;5058736;28;45411;-83
2022/09/09 11:56:32;;;;;;;;;2.00;2.00;;;;;-144.96;100.00;-15791.16;5057703;28;45364;-83
2022/09/09 11:59:06;;;;;;;;;1.40;1.00;;;;;-144.96;100.00;-15791.16;5060352;28;44796;-82
2022/09/09 12:01:42;;;;;;;;;1.00;1.00;;;;;-144.96;100.00;-15791.16;5072944;28;44754;-84
2022/09/09 12:04:25;;;;;;;;;1.80;0.00;;;;;-144.96;100.00;-15791.16;5079611;28;45331;-84
2022/09/09 12:07:25;;;;;;;;;3.00;2.00;;;;;-144.96;100.00;-15791.16;5076733;28;45321;-84
2022/09/09 12:10:06;;;;;;;;;3.00;1.00;;;;;-144.96;100.00;-15791.16;5081680;27;45317;-84
2022/09/09 12:12:38;;;;;;;;;2.00;2.00;;;;;-144.96;100.00;-15791.16;5091823;27;45268;-84
2022/09/09 12:15:07;;;;;;;;;0.60;0.60;;;;;-144.96;100.00;-15791.16;5058634;28;45461;-84
2022/09/09 12:17:45;;;;;;;;;2.00;1.20;;;;;-144.96;100.00;-15791.16;5057953;28;45322;-84
2022/09/09 12:20:17;;;;;;;;;5.00;2.00;;;;;-144.96;100.00;-15791.16;5068253;27;45371;-84
2022/09/09 12:23:14;;;;;;;;;4.00;3.00;;;;;-144.96;100.00;-15791.16;5099359;27;44815;-85
2022/09/09 12:26:01;;;;;;;;;1.00;1.00;;;;;-144.96;100.00;-15791.16;5085148;27;44922;-84
2022/09/09 12:28:51;;;;;;;;;1.80;1.00;;;;;-144.96;100.00;-15791.16;5079883;28;45135;-85
2022/09/09 12:31:40;;;;;;;;;1.40;1.40;;;;;-144.96;100.00;-15791.16;5079548;27;45235;-85
2022/09/09 12:34:43;;;;;;;;;0.60;0.00;;;;;-144.96;100.00;-15791.16;5084978;27;44879;-84
2022/09/09 12:37:33;;;;;;;;;3.60;2.40;;;;;-144.96;100.00;-15791.16;5100211;27;45210;-84
2022/09/09 12:40:02;;;;;;;;;1.00;1.00;;;;;-144.96;100.00;-3292.81;5089549;27;45876;-85
2022/09/09 12:42:28;;;;;;;;;2.80;2.80;;;;;-144.96;100.00;7256.59;5078233;27;44765;-84
2022/09/09 12:44:59;;;;;;;;;2.00;2.00;;;;;-144.96;100.00;15758.41;5078431;27;45439;-83
2022/09/09 12:47:35;;;;;;;;;3.20;1.00;;;;;-144.96;100.00;6687.00;5082877;27;44777;-83
2022/09/09 12:50:01;;;;;;;;;1.40;0.80;;;;;-144.96;100.00;5124.09;5098731;27;45226;-83
2022/09/09 12:52:32;;;;;;;;;2.00;2.00;;;;;-144.96;100.00;11417.44;5093864;27;45112;-84
2022/09/09 12:55:00;;;;;;;;;2.40;2.00;;;;;-144.96;100.00;18314.16;5078014;27;45356;-84